sensor_id;sensor_type;location;lat;lon;timestamp;P1;durP1;ratioP1;P2;durP2;ratioP2
26920;SDS011;14483;47.844;9.660;2023-04-19T00:00:58;11.57;;;7.18;;
26920;SDS011;14483;47.844;9.660;2023-04-19T00:03:25;11.82;;;7.00;;
26920;SDS011;14483;47.844;9.660;2023-04-19T00:05:52;12.35;;;6.72;;
26920;SDS011;14483;47.844;9.660;2023-04-19T00:08:19;11.43;;;7.63;;
26920;SDS011;14483;47.844;9.660;2023-04-19T00:10:45;11.35;;;7.07;;
26920;SDS011;14483;47.844;9.660;2023-04-19T00:13:11;12.60;;;6.85;;
26920;SDS011;14483;47.844;9.660;2023-04-19T00:15:38;12.60;;;7.45;;
26920;SDS011;14483;47.844;9.660;2023-04-19T00:18:06;11.50;;;7.60;;
26920;SDS011;14483;47.844;9.660;2023-04-19T00:20:32;13.65;;;7.85;;
26920;SDS011;14483;47.844;9.660;2023-04-19T00:22:58;12.63;;;7.65;;
26920;SDS011;14483;47.844;9.660;2023-04-19T00:25:25;11.48;;;7.40;;
26920;SDS011;14483;47.844;9.660;2023-04-19T00:27:52;13.00;;;8.18;;
26920;SDS011;14483;47.844;9.660;2023-04-19T00:30:18;13.38;;;7.75;;
26920;SDS011;14483;47.844;9.660;2023-04-19T00:32:45;13.40;;;8.85;;
26920;SDS011;14483;47.844;9.660;2023-04-19T00:35:12;13.63;;;7.97;;
26920;SDS011;14483;47.844;9.660;2023-04-19T00:37:39;13.45;;;8.43;;
26920;SDS011;14483;47.844;9.660;2023-04-19T00:40:06;11.95;;;7.55;;
26920;SDS011;14483;47.844;9.660;2023-04-19T00:42:32;11.50;;;7.45;;
26920;SDS011;14483;47.844;9.660;2023-04-19T00:44:59;14.18;;;8.52;;
26920;SDS011;14483;47.844;9.660;2023-04-19T00:47:25;13.57;;;8.63;;
26920;SDS011;14483;47.844;9.660;2023-04-19T00:49:51;12.98;;;7.95;;
26920;SDS011;14483;47.844;9.660;2023-04-19T00:52:19;12.70;;;7.65;;
26920;SDS011;14483;47.844;9.660;2023-04-19T00:54:46;14.40;;;8.93;;
26920;SDS011;14483;47.844;9.660;2023-04-19T00:57:13;12.43;;;8.23;;
26920;SDS011;14483;47.844;9.660;2023-04-19T00:59:40;11.95;;;7.82;;
26920;SDS011;14483;47.844;9.660;2023-04-19T01:02:07;12.85;;;7.50;;
26920;SDS011;14483;47.844;9.660;2023-04-19T01:04:34;12.57;;;7.78;;
26920;SDS011;14483;47.844;9.660;2023-04-19T01:07:00;12.95;;;7.80;;
26920;SDS011;14483;47.844;9.660;2023-04-19T01:09:28;12.50;;;7.63;;
26920;SDS011;14483;47.844;9.660;2023-04-19T01:11:55;11.25;;;7.30;;
26920;SDS011;14483;47.844;9.660;2023-04-19T01:14:21;13.15;;;8.20;;
26920;SDS011;14483;47.844;9.660;2023-04-19T01:16:47;12.95;;;7.93;;
26920;SDS011;14483;47.844;9.660;2023-04-19T01:19:14;12.88;;;8.45;;
26920;SDS011;14483;47.844;9.660;2023-04-19T01:21:41;14.35;;;8.38;;
26920;SDS011;14483;47.844;9.660;2023-04-19T01:24:09;12.05;;;7.50;;
26920;SDS011;14483;47.844;9.660;2023-04-19T01:26:35;13.20;;;7.82;;
26920;SDS011;14483;47.844;9.660;2023-04-19T01:29:01;12.52;;;7.65;;
26920;SDS011;14483;47.844;9.660;2023-04-19T01:31:28;14.60;;;7.97;;
26920;SDS011;14483;47.844;9.660;2023-04-19T01:33:54;12.68;;;7.85;;
26920;SDS011;14483;47.844;9.660;2023-04-19T01:36:20;12.50;;;7.65;;
26920;SDS011;14483;47.844;9.660;2023-04-19T01:38:47;11.80;;;7.78;;
26920;SDS011;14483;47.844;9.660;2023-04-19T01:41:15;11.20;;;7.47;;
26920;SDS011;14483;47.844;9.660;2023-04-19T01:43:42;14.43;;;7.53;;
26920;SDS011;14483;47.844;9.660;2023-04-19T01:46:08;11.48;;;7.28;;
26920;SDS011;14483;47.844;9.660;2023-04-19T01:48:34;13.63;;;8.30;;
26920;SDS011;14483;47.844;9.660;2023-04-19T01:51:01;11.88;;;6.75;;
26920;SDS011;14483;47.844;9.660;2023-04-19T01:53:27;12.75;;;7.53;;
26920;SDS011;14483;47.844;9.660;2023-04-19T01:55:53;13.20;;;6.45;;
26920;SDS011;14483;47.844;9.660;2023-04-19T01:58:21;11.10;;;7.25;;
26920;SDS011;14483;47.844;9.660;2023-04-19T02:00:47;11.27;;;6.63;;
26920;SDS011;14483;47.844;9.660;2023-04-19T02:03:14;11.60;;;6.35;;
26920;SDS011;14483;47.844;9.660;2023-04-19T02:05:40;9.85;;;5.97;;
26920;SDS011;14483;47.844;9.660;2023-04-19T02:08:06;8.82;;;5.65;;
26920;SDS011;14483;47.844;9.660;2023-04-19T02:10:33;10.63;;;5.45;;
26920;SDS011;14483;47.844;9.660;2023-04-19T02:12:59;8.70;;;5.35;;
26920;SDS011;14483;47.844;9.660;2023-04-19T02:15:27;10.60;;;5.93;;
26920;SDS011;14483;47.844;9.660;2023-04-19T02:17:54;9.30;;;6.40;;
26920;SDS011;14483;47.844;9.660;2023-04-19T02:20:20;9.30;;;6.10;;
26920;SDS011;14483;47.844;9.660;2023-04-19T02:22:48;9.10;;;6.30;;
26920;SDS011;14483;47.844;9.660;2023-04-19T02:25:14;8.98;;;5.70;;
26920;SDS011;14483;47.844;9.660;2023-04-19T02:27:43;8.55;;;5.25;;
26920;SDS011;14483;47.844;9.660;2023-04-19T02:30:10;8.75;;;5.53;;
26920;SDS011;14483;47.844;9.660;2023-04-19T02:32:37;10.02;;;5.97;;
26920;SDS011;14483;47.844;9.660;2023-04-19T02:35:04;9.25;;;5.22;;
26920;SDS011;14483;47.844;9.660;2023-04-19T02:37:30;9.48;;;6.05;;
26920;SDS011;14483;47.844;9.660;2023-04-19T02:39:57;8.90;;;5.30;;
26920;SDS011;14483;47.844;9.660;2023-04-19T02:42:23;9.70;;;6.13;;
26920;SDS011;14483;47.844;9.660;2023-04-19T02:44:49;9.38;;;5.50;;
26920;SDS011;14483;47.844;9.660;2023-04-19T02:47:16;8.20;;;5.28;;
26920;SDS011;14483;47.844;9.660;2023-04-19T02:49:44;10.27;;;5.53;;
26920;SDS011;14483;47.844;9.660;2023-04-19T02:52:10;8.73;;;5.35;;
26920;SDS011;14483;47.844;9.660;2023-04-19T02:54:36;8.90;;;5.53;;
26920;SDS011;14483;47.844;9.660;2023-04-19T02:57:03;10.18;;;6.93;;
26920;SDS011;14483;47.844;9.660;2023-04-19T02:59:29;8.20;;;5.22;;
26920;SDS011;14483;47.844;9.660;2023-04-19T03:01:55;8.95;;;5.47;;
26920;SDS011;14483;47.844;9.660;2023-04-19T03:04:22;8.85;;;5.63;;
26920;SDS011;14483;47.844;9.660;2023-04-19T03:06:50;10.27;;;5.18;;
26920;SDS011;14483;47.844;9.660;2023-04-19T03:09:17;9.02;;;6.07;;
26920;SDS011;14483;47.844;9.660;2023-04-19T03:11:43;9.38;;;5.85;;
26920;SDS011;14483;47.844;9.660;2023-04-19T03:14:09;11.82;;;5.88;;
26920;SDS011;14483;47.844;9.660;2023-04-19T03:16:36;9.10;;;5.30;;
26920;SDS011;14483;47.844;9.660;2023-04-19T03:19:02;9.85;;;6.13;;
26920;SDS011;14483;47.844;9.660;2023-04-19T03:21:29;12.48;;;6.10;;
26920;SDS011;14483;47.844;9.660;2023-04-19T03:23:56;11.20;;;5.95;;
26920;SDS011;14483;47.844;9.660;2023-04-19T03:26:23;10.68;;;6.65;;
26920;SDS011;14483;47.844;9.660;2023-04-19T03:28:49;10.75;;;6.55;;
26920;SDS011;14483;47.844;9.660;2023-04-19T03:31:16;11.55;;;6.13;;
26920;SDS011;14483;47.844;9.660;2023-04-19T03:33:42;8.90;;;4.93;;
26920;SDS011;14483;47.844;9.660;2023-04-19T03:36:08;10.45;;;6.45;;
26920;SDS011;14483;47.844;9.660;2023-04-19T03:38:35;11.30;;;6.75;;
26920;SDS011;14483;47.844;9.660;2023-04-19T03:41:03;11.48;;;7.75;;
26920;SDS011;14483;47.844;9.660;2023-04-19T03:43:29;10.30;;;5.95;;
26920;SDS011;14483;47.844;9.660;2023-04-19T03:45:55;10.95;;;7.18;;
26920;SDS011;14483;47.844;9.660;2023-04-19T03:48:22;10.43;;;6.72;;
26920;SDS011;14483;47.844;9.660;2023-04-19T03:50:48;10.40;;;6.38;;
26920;SDS011;14483;47.844;9.660;2023-04-19T03:53:14;10.50;;;6.50;;
26920;SDS011;14483;47.844;9.660;2023-04-19T03:55:42;11.32;;;6.55;;
26920;SDS011;14483;47.844;9.660;2023-04-19T03:58:11;12.38;;;6.70;;
26920;SDS011;14483;47.844;9.660;2023-04-19T04:00:37;12.10;;;7.07;;
26920;SDS011;14483;47.844;9.660;2023-04-19T04:03:03;10.00;;;7.15;;
26920;SDS011;14483;47.844;9.660;2023-04-19T04:05:30;11.10;;;6.45;;
26920;SDS011;14483;47.844;9.660;2023-04-19T04:07:56;11.90;;;7.30;;
26920;SDS011;14483;47.844;9.660;2023-04-19T04:10:23;9.38;;;6.43;;
26920;SDS011;14483;47.844;9.660;2023-04-19T04:12:49;10.80;;;6.47;;
26920;SDS011;14483;47.844;9.660;2023-04-19T04:15:17;10.07;;;6.55;;
26920;SDS011;14483;47.844;9.660;2023-04-19T04:17:43;11.68;;;7.53;;
26920;SDS011;14483;47.844;9.660;2023-04-19T04:20:10;11.95;;;6.95;;
26920;SDS011;14483;47.844;9.660;2023-04-19T04:22:38;11.90;;;7.05;;
26920;SDS011;14483;47.844;9.660;2023-04-19T04:25:05;9.23;;;5.97;;
26920;SDS011;14483;47.844;9.660;2023-04-19T04:27:32;10.07;;;6.65;;
26920;SDS011;14483;47.844;9.660;2023-04-19T04:29:58;11.45;;;7.00;;
26920;SDS011;14483;47.844;9.660;2023-04-19T04:32:27;10.20;;;6.82;;
26920;SDS011;14483;47.844;9.660;2023-04-19T04:34:54;12.55;;;6.80;;
26920;SDS011;14483;47.844;9.660;2023-04-19T04:37:20;11.95;;;6.72;;
26920;SDS011;14483;47.844;9.660;2023-04-19T04:39:46;10.02;;;6.30;;
26920;SDS011;14483;47.844;9.660;2023-04-19T04:42:13;10.55;;;6.55;;
26920;SDS011;14483;47.844;9.660;2023-04-19T04:44:39;11.70;;;6.78;;
26920;SDS011;14483;47.844;9.660;2023-04-19T04:47:06;12.30;;;6.35;;
26920;SDS011;14483;47.844;9.660;2023-04-19T04:49:33;14.07;;;6.45;;
26920;SDS011;14483;47.844;9.660;2023-04-19T04:52:00;9.75;;;6.05;;
26920;SDS011;14483;47.844;9.660;2023-04-19T04:54:26;9.95;;;6.35;;
26920;SDS011;14483;47.844;9.660;2023-04-19T04:56:53;12.05;;;6.65;;
26920;SDS011;14483;47.844;9.660;2023-04-19T04:59:19;12.75;;;6.68;;
26920;SDS011;14483;47.844;9.660;2023-04-19T05:01:45;10.20;;;6.20;;
26920;SDS011;14483;47.844;9.660;2023-04-19T05:04:12;11.07;;;6.60;;
26920;SDS011;14483;47.844;9.660;2023-04-19T05:06:39;12.80;;;6.88;;
26920;SDS011;14483;47.844;9.660;2023-04-19T05:09:06;11.48;;;7.40;;
26920;SDS011;14483;47.844;9.660;2023-04-19T05:11:32;15.48;;;7.70;;
26920;SDS011;14483;47.844;9.660;2023-04-19T05:13:59;11.48;;;6.82;;
26920;SDS011;14483;47.844;9.660;2023-04-19T05:16:25;15.45;;;7.95;;
26920;SDS011;14483;47.844;9.660;2023-04-19T05:18:52;10.95;;;7.15;;
26920;SDS011;14483;47.844;9.660;2023-04-19T05:21:18;11.65;;;6.97;;
26920;SDS011;14483;47.844;9.660;2023-04-19T05:23:46;11.15;;;6.78;;
26920;SDS011;14483;47.844;9.660;2023-04-19T05:26:12;11.00;;;7.07;;
26920;SDS011;14483;47.844;9.660;2023-04-19T05:28:39;10.05;;;7.05;;
26920;SDS011;14483;47.844;9.660;2023-04-19T05:31:06;11.68;;;7.45;;
26920;SDS011;14483;47.844;9.660;2023-04-19T05:33:33;12.18;;;7.60;;
26920;SDS011;14483;47.844;9.660;2023-04-19T05:35:59;12.13;;;7.47;;
26920;SDS011;14483;47.844;9.660;2023-04-19T05:38:26;11.23;;;7.82;;
26920;SDS011;14483;47.844;9.660;2023-04-19T05:40:53;13.55;;;8.23;;
26920;SDS011;14483;47.844;9.660;2023-04-19T05:43:20;11.90;;;7.47;;
26920;SDS011;14483;47.844;9.660;2023-04-19T05:45:46;11.82;;;7.50;;
26920;SDS011;14483;47.844;9.660;2023-04-19T05:48:13;11.80;;;7.68;;
26920;SDS011;14483;47.844;9.660;2023-04-19T05:50:39;12.15;;;7.70;;
26920;SDS011;14483;47.844;9.660;2023-04-19T05:53:06;11.57;;;7.55;;
26920;SDS011;14483;47.844;9.660;2023-04-19T05:55:32;13.52;;;8.45;;
26920;SDS011;14483;47.844;9.660;2023-04-19T05:58:00;12.98;;;8.40;;
26920;SDS011;14483;47.844;9.660;2023-04-19T06:00:26;12.77;;;8.32;;
26920;SDS011;14483;47.844;9.660;2023-04-19T06:02:52;15.65;;;9.15;;
26920;SDS011;14483;47.844;9.660;2023-04-19T06:05:19;14.13;;;9.18;;
26920;SDS011;14483;47.844;9.660;2023-04-19T06:07:45;16.00;;;8.80;;
26920;SDS011;14483;47.844;9.660;2023-04-19T06:10:12;14.77;;;7.97;;
26920;SDS011;14483;47.844;9.660;2023-04-19T06:12:38;17.02;;;8.82;;
26920;SDS011;14483;47.844;9.660;2023-04-19T06:15:07;15.15;;;9.07;;
26920;SDS011;14483;47.844;9.660;2023-04-19T06:17:33;14.20;;;9.23;;
26920;SDS011;14483;47.844;9.660;2023-04-19T06:20:00;12.77;;;7.95;;
26920;SDS011;14483;47.844;9.660;2023-04-19T06:22:26;14.95;;;9.80;;
26920;SDS011;14483;47.844;9.660;2023-04-19T06:24:52;16.38;;;9.98;;
26920;SDS011;14483;47.844;9.660;2023-04-19T06:27:19;15.27;;;9.30;;
26920;SDS011;14483;47.844;9.660;2023-04-19T06:29:45;16.02;;;8.95;;
26920;SDS011;14483;47.844;9.660;2023-04-19T06:32:13;15.90;;;9.38;;
26920;SDS011;14483;47.844;9.660;2023-04-19T06:34:40;17.20;;;10.00;;
26920;SDS011;14483;47.844;9.660;2023-04-19T06:37:06;16.27;;;10.10;;
26920;SDS011;14483;47.844;9.660;2023-04-19T06:39:32;15.63;;;9.85;;
26920;SDS011;14483;47.844;9.660;2023-04-19T06:41:59;16.90;;;9.88;;
26920;SDS011;14483;47.844;9.660;2023-04-19T06:44:26;16.25;;;10.07;;
26920;SDS011;14483;47.844;9.660;2023-04-19T06:46:52;15.38;;;8.77;;
26920;SDS011;14483;47.844;9.660;2023-04-19T06:49:20;16.20;;;9.40;;
26920;SDS011;14483;47.844;9.660;2023-04-19T06:51:46;15.57;;;9.77;;
26920;SDS011;14483;47.844;9.660;2023-04-19T06:54:13;13.32;;;8.35;;
26920;SDS011;14483;47.844;9.660;2023-04-19T06:56:40;13.80;;;8.50;;
26920;SDS011;14483;47.844;9.660;2023-04-19T06:59:09;14.70;;;8.35;;
26920;SDS011;14483;47.844;9.660;2023-04-19T07:01:35;13.95;;;8.88;;
26920;SDS011;14483;47.844;9.660;2023-04-19T07:04:02;14.50;;;8.48;;
26920;SDS011;14483;47.844;9.660;2023-04-19T07:06:30;12.90;;;8.07;;
26920;SDS011;14483;47.844;9.660;2023-04-19T07:08:56;12.93;;;8.32;;
26920;SDS011;14483;47.844;9.660;2023-04-19T07:11:22;13.15;;;8.13;;
26920;SDS011;14483;47.844;9.660;2023-04-19T07:13:49;12.52;;;8.52;;
26920;SDS011;14483;47.844;9.660;2023-04-19T07:16:15;14.38;;;8.18;;
26920;SDS011;14483;47.844;9.660;2023-04-19T07:18:41;16.02;;;7.78;;
26920;SDS011;14483;47.844;9.660;2023-04-19T07:21:08;14.35;;;7.55;;
26920;SDS011;14483;47.844;9.660;2023-04-19T07:23:36;11.55;;;7.38;;
26920;SDS011;14483;47.844;9.660;2023-04-19T07:26:02;12.00;;;7.68;;
26920;SDS011;14483;47.844;9.660;2023-04-19T07:28:29;12.07;;;6.82;;
26920;SDS011;14483;47.844;9.660;2023-04-19T07:30:55;12.38;;;7.20;;
26920;SDS011;14483;47.844;9.660;2023-04-19T07:33:22;12.75;;;6.95;;
26920;SDS011;14483;47.844;9.660;2023-04-19T07:35:48;13.75;;;8.50;;
26920;SDS011;14483;47.844;9.660;2023-04-19T07:38:15;13.32;;;7.93;;
26920;SDS011;14483;47.844;9.660;2023-04-19T07:40:43;12.75;;;7.20;;
26920;SDS011;14483;47.844;9.660;2023-04-19T07:43:09;12.43;;;7.05;;
26920;SDS011;14483;47.844;9.660;2023-04-19T07:45:36;12.63;;;7.50;;
26920;SDS011;14483;47.844;9.660;2023-04-19T07:48:02;13.07;;;7.85;;
26920;SDS011;14483;47.844;9.660;2023-04-19T07:50:29;9.90;;;6.28;;
26920;SDS011;14483;47.844;9.660;2023-04-19T07:52:55;13.30;;;6.97;;
26920;SDS011;14483;47.844;9.660;2023-04-19T07:55:22;10.65;;;6.85;;
26920;SDS011;14483;47.844;9.660;2023-04-19T07:57:49;10.88;;;6.50;;
26920;SDS011;14483;47.844;9.660;2023-04-19T08:00:16;12.52;;;7.00;;
26920;SDS011;14483;47.844;9.660;2023-04-19T08:02:46;10.88;;;7.15;;
26920;SDS011;14483;47.844;9.660;2023-04-19T08:05:12;9.98;;;6.55;;
26920;SDS011;14483;47.844;9.660;2023-04-19T08:07:40;13.10;;;7.35;;
26920;SDS011;14483;47.844;9.660;2023-04-19T08:10:07;12.77;;;7.70;;
26920;SDS011;14483;47.844;9.660;2023-04-19T08:12:34;13.05;;;7.05;;
26920;SDS011;14483;47.844;9.660;2023-04-19T08:15:02;13.57;;;8.27;;
26920;SDS011;14483;47.844;9.660;2023-04-19T08:17:29;14.00;;;7.78;;
26920;SDS011;14483;47.844;9.660;2023-04-19T08:19:55;12.55;;;7.72;;
26920;SDS011;14483;47.844;9.660;2023-04-19T08:22:21;14.85;;;9.45;;
26920;SDS011;14483;47.844;9.660;2023-04-19T08:24:48;12.27;;;8.30;;
26920;SDS011;14483;47.844;9.660;2023-04-19T08:27:15;15.13;;;7.38;;
26920;SDS011;14483;47.844;9.660;2023-04-19T08:29:41;15.55;;;10.18;;
26920;SDS011;14483;47.844;9.660;2023-04-19T08:32:09;14.20;;;9.75;;
26920;SDS011;14483;47.844;9.660;2023-04-19T08:34:37;14.98;;;10.20;;
26920;SDS011;14483;47.844;9.660;2023-04-19T08:37:04;16.98;;;9.85;;
26920;SDS011;14483;47.844;9.660;2023-04-19T08:39:31;15.60;;;11.02;;
26920;SDS011;14483;47.844;9.660;2023-04-19T08:41:58;15.02;;;8.80;;
26920;SDS011;14483;47.844;9.660;2023-04-19T08:44:28;15.98;;;10.25;;
26920;SDS011;14483;47.844;9.660;2023-04-19T08:46:56;17.00;;;11.13;;
26920;SDS011;14483;47.844;9.660;2023-04-19T08:49:25;15.93;;;9.98;;
26920;SDS011;14483;47.844;9.660;2023-04-19T08:51:52;17.90;;;11.15;;
26920;SDS011;14483;47.844;9.660;2023-04-19T08:54:19;18.30;;;10.35;;
26920;SDS011;14483;47.844;9.660;2023-04-19T08:56:46;25.17;;;13.02;;
26920;SDS011;14483;47.844;9.660;2023-04-19T08:59:13;20.33;;;12.63;;
26920;SDS011;14483;47.844;9.660;2023-04-19T09:01:39;24.38;;;14.57;;
26920;SDS011;14483;47.844;9.660;2023-04-19T09:04:06;23.70;;;13.90;;
26920;SDS011;14483;47.844;9.660;2023-04-19T09:06:35;25.63;;;14.35;;
26920;SDS011;14483;47.844;9.660;2023-04-19T09:09:15;21.95;;;13.45;;
26920;SDS011;14483;47.844;9.660;2023-04-19T09:11:41;21.98;;;13.43;;
26920;SDS011;14483;47.844;9.660;2023-04-19T09:14:08;27.15;;;14.27;;
26920;SDS011;14483;47.844;9.660;2023-04-19T09:16:34;19.55;;;11.88;;
26920;SDS011;14483;47.844;9.660;2023-04-19T09:19:02;25.92;;;12.95;;
26920;SDS011;14483;47.844;9.660;2023-04-19T09:21:28;21.30;;;12.45;;
26920;SDS011;14483;47.844;9.660;2023-04-19T09:23:56;20.92;;;12.85;;
26920;SDS011;14483;47.844;9.660;2023-04-19T09:26:23;28.13;;;15.02;;
26920;SDS011;14483;47.844;9.660;2023-04-19T09:28:56;25.10;;;13.18;;
26920;SDS011;14483;47.844;9.660;2023-04-19T09:31:23;22.35;;;12.35;;
26920;SDS011;14483;47.844;9.660;2023-04-19T09:33:49;27.35;;;14.20;;
26920;SDS011;14483;47.844;9.660;2023-04-19T09:36:27;22.08;;;13.45;;
26920;SDS011;14483;47.844;9.660;2023-04-19T09:38:55;30.63;;;15.98;;
26920;SDS011;14483;47.844;9.660;2023-04-19T09:41:23;31.80;;;15.93;;
26920;SDS011;14483;47.844;9.660;2023-04-19T09:43:49;25.98;;;15.52;;
26920;SDS011;14483;47.844;9.660;2023-04-19T09:46:28;27.10;;;15.30;;
26920;SDS011;14483;47.844;9.660;2023-04-19T09:48:55;26.95;;;15.45;;
26920;SDS011;14483;47.844;9.660;2023-04-19T09:51:22;26.30;;;14.13;;
26920;SDS011;14483;47.844;9.660;2023-04-19T09:53:48;27.30;;;15.48;;
26920;SDS011;14483;47.844;9.660;2023-04-19T09:56:14;27.20;;;14.68;;
26920;SDS011;14483;47.844;9.660;2023-04-19T09:58:43;27.25;;;14.27;;
26920;SDS011;14483;47.844;9.660;2023-04-19T10:01:09;26.10;;;15.02;;
26920;SDS011;14483;47.844;9.660;2023-04-19T10:03:36;27.50;;;14.60;;
26920;SDS011;14483;47.844;9.660;2023-04-19T10:06:02;24.63;;;13.50;;
26920;SDS011;14483;47.844;9.660;2023-04-19T10:08:29;26.08;;;14.55;;
26920;SDS011;14483;47.844;9.660;2023-04-19T10:10:57;24.13;;;12.93;;
26920;SDS011;14483;47.844;9.660;2023-04-19T10:13:23;28.35;;;13.80;;
26920;SDS011;14483;47.844;9.660;2023-04-19T10:15:52;25.25;;;14.90;;
26920;SDS011;14483;47.844;9.660;2023-04-19T10:18:18;24.73;;;14.38;;
26920;SDS011;14483;47.844;9.660;2023-04-19T10:20:46;25.40;;;13.85;;
26920;SDS011;14483;47.844;9.660;2023-04-19T10:23:14;28.25;;;15.73;;
26920;SDS011;14483;47.844;9.660;2023-04-19T10:25:44;30.95;;;15.52;;
26920;SDS011;14483;47.844;9.660;2023-04-19T10:28:11;25.95;;;14.15;;
26920;SDS011;14483;47.844;9.660;2023-04-19T10:30:38;25.15;;;15.20;;
26920;SDS011;14483;47.844;9.660;2023-04-19T10:33:24;23.40;;;13.85;;
26920;SDS011;14483;47.844;9.660;2023-04-19T10:35:51;25.80;;;13.85;;
26920;SDS011;14483;47.844;9.660;2023-04-19T10:38:20;25.27;;;14.20;;
26920;SDS011;14483;47.844;9.660;2023-04-19T10:41:00;24.67;;;14.13;;
26920;SDS011;14483;47.844;9.660;2023-04-19T10:43:28;25.13;;;14.30;;
26920;SDS011;14483;47.844;9.660;2023-04-19T10:45:57;27.58;;;15.32;;
26920;SDS011;14483;47.844;9.660;2023-04-19T10:48:35;24.75;;;14.40;;
26920;SDS011;14483;47.844;9.660;2023-04-19T10:51:03;24.80;;;14.50;;
26920;SDS011;14483;47.844;9.660;2023-04-19T10:53:47;29.38;;;15.43;;
26920;SDS011;14483;47.844;9.660;2023-04-19T10:56:14;24.13;;;15.82;;
26920;SDS011;14483;47.844;9.660;2023-04-19T11:01:33;22.95;;;14.52;;
26920;SDS011;14483;47.844;9.660;2023-04-19T11:04:02;24.73;;;14.25;;
26920;SDS011;14483;47.844;9.660;2023-04-19T11:06:29;23.60;;;12.77;;
26920;SDS011;14483;47.844;9.660;2023-04-19T11:08:56;24.73;;;12.57;;
26920;SDS011;14483;47.844;9.660;2023-04-19T11:11:22;24.10;;;14.35;;
26920;SDS011;14483;47.844;9.660;2023-04-19T11:13:49;23.73;;;11.48;;
26920;SDS011;14483;47.844;9.660;2023-04-19T11:16:17;20.27;;;10.60;;
26920;SDS011;14483;47.844;9.660;2023-04-19T11:18:43;23.05;;;13.52;;
26920;SDS011;14483;47.844;9.660;2023-04-19T11:21:12;22.83;;;11.68;;
26920;SDS011;14483;47.844;9.660;2023-04-19T11:23:39;22.92;;;12.13;;
26920;SDS011;14483;47.844;9.660;2023-04-19T11:26:06;22.27;;;12.75;;
26920;SDS011;14483;47.844;9.660;2023-04-19T11:28:35;20.35;;;11.73;;
26920;SDS011;14483;47.844;9.660;2023-04-19T11:31:01;18.98;;;10.68;;
26920;SDS011;14483;47.844;9.660;2023-04-19T11:33:31;25.38;;;11.90;;
26920;SDS011;14483;47.844;9.660;2023-04-19T11:35:58;27.75;;;14.40;;
26920;SDS011;14483;47.844;9.660;2023-04-19T11:38:27;22.60;;;13.50;;
26920;SDS011;14483;47.844;9.660;2023-04-19T11:40:57;21.05;;;12.82;;
26920;SDS011;14483;47.844;9.660;2023-04-19T11:43:23;19.42;;;12.15;;
26920;SDS011;14483;47.844;9.660;2023-04-19T11:45:57;21.88;;;13.20;;
26920;SDS011;14483;47.844;9.660;2023-04-19T11:48:30;16.90;;;10.80;;
26920;SDS011;14483;47.844;9.660;2023-04-19T11:50:56;23.42;;;13.15;;
26920;SDS011;14483;47.844;9.660;2023-04-19T11:53:24;19.75;;;12.75;;
26920;SDS011;14483;47.844;9.660;2023-04-19T11:55:53;19.40;;;11.38;;
26920;SDS011;14483;47.844;9.660;2023-04-19T11:58:24;22.95;;;13.45;;
26920;SDS011;14483;47.844;9.660;2023-04-19T12:00:53;21.50;;;13.93;;
26920;SDS011;14483;47.844;9.660;2023-04-19T12:03:20;19.05;;;9.75;;
26920;SDS011;14483;47.844;9.660;2023-04-19T12:05:51;19.35;;;13.68;;
26920;SDS011;14483;47.844;9.660;2023-04-19T12:08:17;22.33;;;10.48;;
26920;SDS011;14483;47.844;9.660;2023-04-19T12:10:56;18.92;;;10.82;;
26920;SDS011;14483;47.844;9.660;2023-04-19T12:13:23;15.57;;;9.98;;
26920;SDS011;14483;47.844;9.660;2023-04-19T12:15:50;17.38;;;9.27;;
26920;SDS011;14483;47.844;9.660;2023-04-19T12:18:16;20.75;;;9.32;;
26920;SDS011;14483;47.844;9.660;2023-04-19T12:20:43;14.90;;;9.10;;
26920;SDS011;14483;47.844;9.660;2023-04-19T12:23:09;12.80;;;8.57;;
26920;SDS011;14483;47.844;9.660;2023-04-19T12:25:38;20.00;;;10.05;;
26920;SDS011;14483;47.844;9.660;2023-04-19T12:28:06;16.38;;;8.88;;
26920;SDS011;14483;47.844;9.660;2023-04-19T12:30:32;14.68;;;9.75;;
26920;SDS011;14483;47.844;9.660;2023-04-19T12:33:00;15.80;;;8.20;;
26920;SDS011;14483;47.844;9.660;2023-04-19T12:35:26;15.35;;;9.52;;
26920;SDS011;14483;47.844;9.660;2023-04-19T12:37:53;13.82;;;8.65;;
26920;SDS011;14483;47.844;9.660;2023-04-19T12:40:20;15.45;;;8.90;;
26920;SDS011;14483;47.844;9.660;2023-04-19T12:42:47;13.35;;;8.38;;
26920;SDS011;14483;47.844;9.660;2023-04-19T12:45:14;12.00;;;8.68;;
26920;SDS011;14483;47.844;9.660;2023-04-19T12:47:41;12.73;;;7.93;;
26920;SDS011;14483;47.844;9.660;2023-04-19T12:50:08;12.80;;;8.07;;
26920;SDS011;14483;47.844;9.660;2023-04-19T12:52:35;12.18;;;7.22;;
26920;SDS011;14483;47.844;9.660;2023-04-19T12:55:01;11.77;;;7.80;;
26920;SDS011;14483;47.844;9.660;2023-04-19T12:57:27;14.25;;;7.60;;
26920;SDS011;14483;47.844;9.660;2023-04-19T12:59:54;11.88;;;7.00;;
26920;SDS011;14483;47.844;9.660;2023-04-19T13:02:22;11.32;;;7.22;;
26920;SDS011;14483;47.844;9.660;2023-04-19T13:04:48;13.50;;;7.60;;
26920;SDS011;14483;47.844;9.660;2023-04-19T13:07:15;12.40;;;8.18;;
26920;SDS011;14483;47.844;9.660;2023-04-19T13:09:41;15.45;;;8.55;;
26920;SDS011;14483;47.844;9.660;2023-04-19T13:12:07;12.30;;;7.82;;
26920;SDS011;14483;47.844;9.660;2023-04-19T13:14:34;12.15;;;8.07;;
26920;SDS011;14483;47.844;9.660;2023-04-19T13:17:00;11.70;;;7.82;;
26920;SDS011;14483;47.844;9.660;2023-04-19T13:19:28;11.10;;;7.60;;
26920;SDS011;14483;47.844;9.660;2023-04-19T13:21:55;14.30;;;8.73;;
26920;SDS011;14483;47.844;9.660;2023-04-19T13:24:21;12.70;;;7.28;;
26920;SDS011;14483;47.844;9.660;2023-04-19T13:26:47;10.73;;;6.88;;
26920;SDS011;14483;47.844;9.660;2023-04-19T13:29:14;10.52;;;6.40;;
26920;SDS011;14483;47.844;9.660;2023-04-19T13:31:40;10.68;;;6.35;;
26920;SDS011;14483;47.844;9.660;2023-04-19T13:34:07;11.65;;;6.38;;
26920;SDS011;14483;47.844;9.660;2023-04-19T13:36:35;12.13;;;7.75;;
26920;SDS011;14483;47.844;9.660;2023-04-19T13:39:01;11.65;;;6.88;;
26920;SDS011;14483;47.844;9.660;2023-04-19T13:41:28;12.52;;;7.03;;
26920;SDS011;14483;47.844;9.660;2023-04-19T13:43:54;12.93;;;7.43;;
26920;SDS011;14483;47.844;9.660;2023-04-19T13:46:20;9.93;;;6.32;;
26920;SDS011;14483;47.844;9.660;2023-04-19T13:48:47;10.00;;;6.57;;
26920;SDS011;14483;47.844;9.660;2023-04-19T13:51:13;9.02;;;5.75;;
26920;SDS011;14483;47.844;9.660;2023-04-19T13:53:41;9.88;;;7.03;;
26920;SDS011;14483;47.844;9.660;2023-04-19T13:56:07;11.93;;;7.32;;
26920;SDS011;14483;47.844;9.660;2023-04-19T13:58:34;11.90;;;7.15;;
26920;SDS011;14483;47.844;9.660;2023-04-19T14:01:00;14.73;;;7.05;;
26920;SDS011;14483;47.844;9.660;2023-04-19T14:03:27;13.65;;;7.90;;
26920;SDS011;14483;47.844;9.660;2023-04-19T14:05:53;10.20;;;6.97;;
26920;SDS011;14483;47.844;9.660;2023-04-19T14:08:20;11.82;;;6.93;;
26920;SDS011;14483;47.844;9.660;2023-04-19T14:10:48;11.00;;;7.78;;
26920;SDS011;14483;47.844;9.660;2023-04-19T14:13:14;11.48;;;6.50;;
26920;SDS011;14483;47.844;9.660;2023-04-19T14:15:41;10.43;;;6.70;;
26920;SDS011;14483;47.844;9.660;2023-04-19T14:18:07;15.13;;;8.88;;
26920;SDS011;14483;47.844;9.660;2023-04-19T14:20:33;14.50;;;8.60;;
26920;SDS011;14483;47.844;9.660;2023-04-19T14:23:00;17.20;;;9.35;;
26920;SDS011;14483;47.844;9.660;2023-04-19T14:25:26;19.08;;;9.65;;
26920;SDS011;14483;47.844;9.660;2023-04-19T14:27:54;14.27;;;9.85;;
26920;SDS011;14483;47.844;9.660;2023-04-19T14:30:20;14.55;;;9.13;;
26920;SDS011;14483;47.844;9.660;2023-04-19T14:32:47;12.07;;;7.43;;
26920;SDS011;14483;47.844;9.660;2023-04-19T14:35:13;14.77;;;8.93;;